Time;durP1;ratioP1;P1;durP2;ratioP2;P2;SDS_P1;SDS_P2;PMS_P1;PMS_P2;Temp;Humidity;BMP_temperature;BMP_pressure;BME280_temperature;BME280_humidity;BME280_pressure;Samples;Min_cycle;Max_cycle;Signal;HPM_P1;HPM_P2
2020/12/17 00:00:48;;;;;;;38.40;22.57;;;8.40;99.90;;;;;;4975296;28;20180;-61
2020/12/17 00:03:14;;;;;;;38.43;23.10;;;8.40;99.90;;;;;;4973798;28;20225;-61
2020/12/17 00:05:39;;;;;;;37.07;21.10;;;8.40;99.90;;;;;;4975077;28;20223;-61
2020/12/17 00:08:05;;;;;;;41.63;21.60;;;8.40;99.90;;;;;;4975350;28;20226;-61
2020/12/17 00:10:30;;;;;;;50.47;25.03;;;8.30;99.90;;;;;;4975073;28;20172;-61
2020/12/17 00:12:56;;;;;;;37.67;23.00;;;8.40;99.90;;;;;;4975028;28;20294;-61
2020/12/17 00:15:21;;;;;;;31.30;20.17;;;8.40;99.90;;;;;;4974858;28;20207;-61
2020/12/17 00:17:49;;;;;;;40.83;22.10;;;8.50;99.90;;;;;;4974978;28;20508;-61
2020/12/17 00:20:16;;;;;;;39.92;22.33;;;8.50;99.90;;;;;;4974898;28;20191;-61
2020/12/17 00:22:42;;;;;;;42.65;24.05;;;8.60;99.90;;;;;;4974926;28;20532;-67
2020/12/17 00:25:09;;;;;;;37.60;20.48;;;8.60;99.90;;;;;;4974593;28;20196;-62
2020/12/17 00:27:40;;;;;;;39.70;23.35;;;8.60;99.90;;;;;;4975331;28;20279;-64
2020/12/17 00:30:11;;;;;;;40.08;22.98;;;8.70;99.90;;;;;;4974758;28;20601;-64
2020/12/17 00:32:37;;;;;;;42.53;22.67;;;8.70;99.90;;;;;;4973720;28;20617;-64
2020/12/17 00:35:04;;;;;;;43.03;22.10;;;8.70;99.90;;;;;;4974495;28;20184;-65
2020/12/17 00:37:34;;;;;;;36.80;21.52;;;8.50;99.90;;;;;;4973768;28;20188;-65
2020/12/17 00:40:01;;;;;;;38.25;20.80;;;8.60;99.90;;;;;;4974799;28;20215;-65
2020/12/17 00:42:26;;;;;;;36.38;21.77;;;8.50;99.90;;;;;;4974553;28;20203;-63
2020/12/17 00:44:52;;;;;;;35.67;21.50;;;8.50;99.90;;;;;;4974680;28;20634;-63
2020/12/17 00:47:18;;;;;;;32.87;19.87;;;8.50;99.90;;;;;;4974239;28;20180;-63
2020/12/17 00:49:44;;;;;;;38.13;22.30;;;8.50;99.90;;;;;;4974385;28;20180;-63
2020/12/17 00:52:10;;;;;;;33.80;19.67;;;8.40;99.90;;;;;;4974479;28;20187;-65
2020/12/17 00:54:39;;;;;;;35.65;19.58;;;8.50;99.90;;;;;;4974286;28;20188;-62
2020/12/17 00:57:05;;;;;;;38.83;20.77;;;8.50;99.90;;;;;;4974398;28;20172;-63
2020/12/17 00:59:31;;;;;;;36.50;20.48;;;8.50;99.90;;;;;;4974473;28;20250;-62
2020/12/17 01:01:56;;;;;;;37.07;20.40;;;8.50;99.90;;;;;;4974335;28;20215;-63
2020/12/17 01:04:22;;;;;;;36.43;21.23;;;8.50;99.90;;;;;;4974211;28;20187;-64
2020/12/17 01:06:48;;;;;;;34.57;20.10;;;8.60;99.90;;;;;;4974423;28;20176;-65
2020/12/17 01:09:13;;;;;;;37.50;20.27;;;8.60;99.90;;;;;;4974261;28;20206;-64
2020/12/17 01:11:39;;;;;;;36.90;23.00;;;8.50;99.90;;;;;;4974317;28;20620;-64
2020/12/17 01:14:04;;;;;;;37.23;21.90;;;8.30;99.90;;;;;;4974018;28;20523;-64
2020/12/17 01:16:30;;;;;;;37.00;20.50;;;8.20;99.90;;;;;;4974241;28;20198;-65
2020/12/17 01:18:56;;;;;;;34.30;19.83;;;8.20;99.90;;;;;;4973278;28;20192;-65
2020/12/17 01:21:21;;;;;;;34.13;19.83;;;8.20;99.90;;;;;;4974367;28;20224;-64
2020/12/17 01:23:47;;;;;;;32.57;20.37;;;8.10;99.90;;;;;;4973956;28;20498;-64
2020/12/17 01:26:13;;;;;;;34.43;22.57;;;8.10;99.90;;;;;;4974201;28;20554;-65
2020/12/17 01:28:40;;;;;;;38.10;22.03;;;8.00;99.90;;;;;;4974186;28;20254;-64
2020/12/17 01:31:08;;;;;;;47.85;28.30;;;8.10;99.90;;;;;;4974213;28;20185;-64
2020/12/17 01:33:34;;;;;;;37.33;23.00;;;8.10;99.90;;;;;;4974081;28;20256;-64
2020/12/17 01:36:08;;;;;;;32.37;20.50;;;8.20;99.90;;;;;;4974204;28;20188;-62
2020/12/17 01:38:34;;;;;;;40.15;21.90;;;8.20;99.90;;;;;;4973193;28;20239;-64
2020/12/17 01:41:00;;;;;;;36.00;19.92;;;8.20;99.90;;;;;;4974116;28;20176;-61
2020/12/17 01:43:25;;;;;;;39.17;21.57;;;8.20;99.90;;;;;;4974078;28;20628;-62
2020/12/17 01:45:52;;;;;;;40.83;22.03;;;8.30;99.90;;;;;;4974275;28;20777;-62
2020/12/17 01:48:18;;;;;;;35.85;21.50;;;8.20;99.90;;;;;;4974383;28;20216;-65
2020/12/17 01:50:54;;;;;;;31.70;19.58;;;8.30;99.90;;;;;;4974166;28;20590;-65
2020/12/17 01:53:20;;;;;;;40.85;20.85;;;8.30;99.90;;;;;;4973905;28;20295;-65
2020/12/17 01:55:45;;;;;;;34.67;20.60;;;8.30;99.90;;;;;;4974186;28;20200;-62
2020/12/17 01:58:13;;;;;;;34.30;20.73;;;8.30;99.90;;;;;;4973882;28;20200;-63
2020/12/17 02:00:39;;;;;;;31.73;20.23;;;8.30;99.90;;;;;;4974052;28;20184;-62
2020/12/17 02:03:06;;;;;;;35.77;19.80;;;8.40;99.90;;;;;;4975809;28;20354;-65
2020/12/17 02:05:31;;;;;;;35.17;19.55;;;8.40;99.90;;;;;;4977483;28;20169;-62
2020/12/17 02:07:59;;;;;;;33.10;18.57;;;8.30;99.90;;;;;;4977398;28;20184;-62
2020/12/17 02:10:25;;;;;;;32.95;18.63;;;8.40;99.90;;;;;;4977298;28;20176;-62
2020/12/17 02:12:51;;;;;;;35.03;19.65;;;8.40;99.90;;;;;;4977347;28;20259;-64
2020/12/17 02:15:18;;;;;;;33.88;17.92;;;8.40;99.90;;;;;;4977153;28;20180;-64
2020/12/17 02:17:44;;;;;;;31.92;18.80;;;8.30;99.90;;;;;;4977171;28;20219;-62
2020/12/17 02:20:11;;;;;;;29.13;17.77;;;8.30;99.90;;;;;;4977277;28;20180;-65
2020/12/17 02:22:37;;;;;;;30.75;18.70;;;8.30;99.90;;;;;;4976995;28;20471;-61
2020/12/17 02:25:05;;;;;;;35.37;18.63;;;8.40;99.90;;;;;;4976859;28;20180;-61
2020/12/17 02:27:31;;;;;;;27.55;16.00;;;8.40;99.90;;;;;;4977069;28;20423;-62
2020/12/17 02:29:57;;;;;;;27.40;16.87;;;8.30;99.90;;;;;;4976966;28;20186;-64
2020/12/17 02:32:23;;;;;;;31.80;17.17;;;8.20;99.90;;;;;;4977091;28;20180;-64
2020/12/17 02:34:48;;;;;;;32.63;18.37;;;8.10;99.90;;;;;;4976641;28;20460;-61
2020/12/17 02:37:14;;;;;;;31.50;19.60;;;8.10;99.90;;;;;;4976809;28;20261;-61
2020/12/17 02:39:40;;;;;;;26.43;15.97;;;8.10;99.90;;;;;;4975890;28;20217;-62
2020/12/17 02:42:05;;;;;;;27.37;17.90;;;8.10;99.90;;;;;;4976777;28;20302;-64
2020/12/17 02:44:31;;;;;;;25.63;16.53;;;8.10;99.90;;;;;;4976550;28;20275;-64
2020/12/17 02:46:57;;;;;;;25.90;15.70;;;8.10;99.90;;;;;;4976760;28;20176;-64
2020/12/17 02:49:22;;;;;;;30.33;18.57;;;8.10;99.90;;;;;;4976811;28;20223;-64
2020/12/17 02:51:48;;;;;;;27.00;16.20;;;8.10;99.90;;;;;;4976681;28;20560;-64
2020/12/17 02:54:13;;;;;;;25.60;14.40;;;8.10;99.90;;;;;;4976471;28;20216;-62
2020/12/17 02:56:39;;;;;;;25.40;15.67;;;8.10;99.90;;;;;;4976504;28;20191;-65
2020/12/17 02:59:04;;;;;;;30.07;16.63;;;8.10;99.90;;;;;;4976577;28;20199;-65
2020/12/17 03:01:30;;;;;;;28.20;17.40;;;8.10;99.90;;;;;;4976330;28;20200;-65
2020/12/17 03:03:55;;;;;;;26.67;17.00;;;8.20;99.90;;;;;;4976219;28;20483;-65
2020/12/17 03:06:21;;;;;;;31.67;17.90;;;8.20;99.90;;;;;;4976223;28;20506;-61
2020/12/17 03:08:47;;;;;;;26.30;15.80;;;8.30;99.90;;;;;;4976329;28;20194;-61
2020/12/17 03:11:13;;;;;;;28.27;16.47;;;8.30;99.90;;;;;;4976292;28;20176;-61
2020/12/17 03:13:38;;;;;;;27.73;17.47;;;8.30;91.50;;;;;;4974832;28;20817;-63
2020/12/17 03:16:04;;;;;;;28.63;16.57;;;8.30;69.70;;;;;;4976179;28;20176;-64
2020/12/17 03:18:29;;;;;;;27.43;15.40;;;8.30;57.00;;;;;;4976060;28;20187;-65
2020/12/17 03:20:55;;;;;;;23.27;15.93;;;8.30;50.90;;;;;;4976004;28;20188;-63
2020/12/17 03:23:21;;;;;;;24.97;15.30;;;8.30;47.50;;;;;;4975707;28;20457;-64
2020/12/17 03:25:46;;;;;;;27.25;15.93;;;8.30;39.60;;;;;;4976111;28;20222;-65
2020/12/17 03:28:12;;;;;;;25.53;15.20;;;8.30;34.90;;;;;;4975960;28;20226;-65
2020/12/17 03:30:38;;;;;;;25.53;16.30;;;8.30;36.60;;;;;;4976046;28;20549;-65
2020/12/17 03:33:04;;;;;;;24.75;15.63;;;8.30;27.00;;;;;;4975752;28;20180;-65
2020/12/17 03:35:29;;;;;;;26.03;16.07;;;8.30;22.10;;;;;;4975561;28;20180;-64
2020/12/17 03:37:58;;;;;;;23.80;14.40;;;8.40;17.60;;;;;;4975776;28;20506;-65
2020/12/17 03:40:24;;;;;;;25.88;14.70;;;8.40;9.10;;;;;;4975770;28;20176;-65
2020/12/17 03:42:50;;;;;;;27.90;16.17;;;8.40;1.00;;;;;;4975648;28;20629;-64
2020/12/17 03:45:16;;;;;;;22.73;14.43;;;8.40;1.00;;;;;;4974513;28;20203;-63
2020/12/17 03:47:42;;;;;;;21.27;14.67;;;8.40;1.00;;;;;;4974857;28;20987;-61
2020/12/17 03:50:07;;;;;;;24.50;14.70;;;8.40;1.00;;;;;;4975388;28;20199;-61
2020/12/17 03:52:33;;;;;;;22.50;14.23;;;8.40;1.00;;;;;;4975617;28;20262;-64
2020/12/17 03:54:58;;;;;;;22.50;15.80;;;8.40;1.00;;;;;;4975162;28;20184;-65
2020/12/17 03:57:24;;;;;;;22.43;14.40;;;8.40;1.00;;;;;;4975449;28;20605;-61
2020/12/17 03:59:49;;;;;;;22.80;15.23;;;8.40;1.00;;;;;;4975252;28;20199;-65
2020/12/17 04:02:15;;;;;;;24.57;14.70;;;8.40;1.00;;;;;;4975284;28;20266;-65
2020/12/17 04:04:40;;;;;;;27.53;16.67;;;8.40;1.00;;;;;;4974960;28;20317;-65
2020/12/17 04:07:06;;;;;;;23.90;14.30;;;8.50;1.00;;;;;;4975184;28;20280;-65
2020/12/17 04:09:32;;;;;;;20.57;13.83;;;8.60;1.00;;;;;;4974340;28;20283;-66
2020/12/17 04:11:57;;;;;;;24.60;14.03;;;8.50;1.00;;;;;;4975185;28;20259;-65
2020/12/17 04:17:25;;;;;;;23.63;15.25;;;8.50;1.00;;;;;;4975359;28;20187;-63
2020/12/17 04:19:51;;;;;;;22.33;14.13;;;8.50;1.00;;;;;;4975010;28;20188;-63
2020/12/17 04:22:17;;;;;;;30.77;16.30;;;8.50;1.00;;;;;;4974961;28;20579;-63
2020/12/17 04:24:46;;;;;;;27.80;16.70;;;8.40;1.00;;;;;;4974432;28;20177;-62
2020/12/17 04:27:12;;;;;;;24.60;16.23;;;8.40;1.00;;;;;;4973991;28;20522;-62
2020/12/17 04:29:38;;;;;;;25.23;16.07;;;8.40;1.00;;;;;;4975064;28;20183;-65
2020/12/17 04:32:03;;;;;;;29.73;16.63;;;8.40;1.00;;;;;;4973989;28;20184;-65
2020/12/17 04:34:29;;;;;;;25.57;14.83;;;8.50;1.00;;;;;;4974777;28;20267;-64
2020/12/17 04:36:54;;;;;;;27.23;15.53;;;8.60;1.00;;;;;;4974929;28;20609;-64
2020/12/17 04:39:21;;;;;;;21.10;13.97;;;8.50;1.00;;;;;;4974799;28;20183;-64
2020/12/17 04:41:47;;;;;;;26.20;14.93;;;8.70;1.00;;;;;;4974565;28;20208;-64
2020/12/17 04:44:15;;;;;;;25.35;17.23;;;8.70;1.00;;;;;;4974526;28;20172;-64
2020/12/17 04:46:42;;;;;;;25.75;15.02;;;8.60;1.00;;;;;;4974685;28;20186;-64
2020/12/17 04:49:10;;;;;;;22.90;15.90;;;8.60;1.00;;;;;;4974718;28;20609;-64
2020/12/17 04:51:37;;;;;;;23.67;15.65;;;8.60;1.00;;;;;;4974859;28;20199;-64
2020/12/17 04:54:02;;;;;;;22.10;15.20;;;8.60;1.00;;;;;;4974367;28;20606;-64
2020/12/17 04:56:37;;;;;;;22.70;16.20;;;8.70;1.00;;;;;;4974517;28;20183;-64
2020/12/17 04:59:04;;;;;;;22.85;15.10;;;8.70;1.00;;;;;;4974461;28;20195;-64
2020/12/17 05:01:32;;;;;;;24.98;14.00;;;8.80;1.00;;;;;;4974507;28;20184;-64
2020/12/17 05:03:59;;;;;;;28.98;15.15;;;8.80;1.00;;;;;;4974290;28;20204;-64
2020/12/17 05:06:26;;;;;;;22.52;14.95;;;8.80;1.00;;;;;;4974379;28;20302;-64
2020/12/17 05:08:52;;;;;;;25.20;15.95;;;8.90;1.00;;;;;;4974201;28;20186;-64
2020/12/17 05:11:19;;;;;;;26.75;16.42;;;9.00;1.00;;;;;;4974370;28;20231;-64
2020/12/17 05:13:45;;;;;;;19.20;13.38;;;9.00;1.00;;;;;;4974077;28;20215;-65
2020/12/17 05:16:10;;;;;;;22.85;15.40;;;8.80;1.00;;;;;;4974555;28;20254;-64
2020/12/17 05:18:36;;;;;;;24.63;14.97;;;8.70;1.00;;;;;;4974553;28;20207;-64
2020/12/17 05:21:03;;;;;;;24.17;15.52;;;8.60;1.00;;;;;;4974425;28;20190;-62
2020/12/17 05:23:29;;;;;;;23.95;14.50;;;8.60;1.00;;;;;;4974009;28;20215;-66
2020/12/17 05:25:56;;;;;;;22.65;13.98;;;8.60;1.00;;;;;;4974288;28;20257;-68
2020/12/17 05:28:26;;;;;;;22.42;13.90;;;8.70;1.00;;;;;;4973439;28;20187;-67
2020/12/17 05:30:52;;;;;;;23.80;16.13;;;8.60;1.00;;;;;;4973467;28;20515;-67
2020/12/17 05:33:17;;;;;;;23.00;14.03;;;8.50;1.00;;;;;;4973062;28;20188;-67
2020/12/17 05:35:43;;;;;;;21.90;13.60;;;8.50;1.00;;;;;;4974445;28;20191;-67
2020/12/17 05:38:10;;;;;;;24.80;15.80;;;8.50;1.00;;;;;;4976628;28;20280;-67
2020/12/17 05:40:41;;;;;;;25.48;13.98;;;8.40;1.00;;;;;;4977105;28;20192;-66
2020/12/17 05:43:09;;;;;;;24.65;14.07;;;8.40;1.00;;;;;;4976777;28;20230;-62
2020/12/17 05:45:35;;;;;;;23.95;13.35;;;8.40;1.00;;;;;;4977838;28;20613;-64
2020/12/17 05:48:27;;;;;;;22.08;14.73;;;8.50;1.00;;;;;;4977839;28;20187;-62
2020/12/17 05:50:55;;;;;;;21.17;14.05;;;8.50;1.00;;;;;;4977745;28;20269;-65
2020/12/17 05:53:23;;;;;;;21.05;13.35;;;8.50;1.00;;;;;;4976404;28;20254;-65
2020/12/17 05:56:01;;;;;;;22.48;13.43;;;8.60;1.00;;;;;;4977595;28;20319;-66
2020/12/17 05:59:00;;;;;;;19.27;14.75;;;8.40;1.00;;;;;;4977567;28;20310;-66
2020/12/17 06:01:28;;;;;;;20.13;13.95;;;8.50;1.00;;;;;;4976962;28;20207;-66
2020/12/17 06:03:54;;;;;;;23.00;13.60;;;8.50;1.00;;;;;;4977517;28;20172;-66
2020/12/17 06:06:21;;;;;;;23.87;17.10;;;8.50;1.00;;;;;;4976821;28;20303;-66
2020/12/17 06:09:02;;;;;;;22.27;15.13;;;8.50;1.00;;;;;;4977485;28;20445;-66
2020/12/17 06:11:31;;;;;;;24.80;15.00;;;8.50;1.00;;;;;;4977686;28;20321;-66
2020/12/17 06:13:57;;;;;;;20.60;13.23;;;8.50;1.00;;;;;;4976970;28;20649;-68
2020/12/17 06:16:23;;;;;;;22.30;13.77;;;8.50;1.00;;;;;;4977239;28;20545;-63
2020/12/17 06:18:56;;;;;;;23.83;14.43;;;8.60;1.00;;;;;;4977436;28;20176;-62
2020/12/17 06:21:25;;;;;;;19.80;12.88;;;8.60;1.00;;;;;;4977315;28;20643;-62
2020/12/17 06:23:58;;;;;;;20.48;13.57;;;8.60;1.00;;;;;;4976933;28;20246;-62
2020/12/17 06:26:25;;;;;;;26.50;13.43;;;8.60;1.00;;;;;;4977199;28;20191;-62
2020/12/17 06:28:53;;;;;;;23.55;14.40;;;8.60;1.00;;;;;;4977189;28;20179;-62
2020/12/17 06:31:25;;;;;;;24.70;15.13;;;8.60;1.00;;;;;;4977130;28;20614;-62
2020/12/17 06:33:56;;;;;;;22.95;13.23;;;8.70;1.00;;;;;;4976825;28;20180;-62
2020/12/17 06:36:30;;;;;;;21.83;13.48;;;8.60;1.00;;;;;;4976997;28;20211;-62
2020/12/17 06:38:55;;;;;;;20.27;14.20;;;8.60;1.00;;;;;;4976858;28;20176;-62
2020/12/17 06:41:24;;;;;;;25.60;14.20;;;8.60;1.00;;;;;;4977046;28;20212;-62
2020/12/17 06:43:50;;;;;;;17.55;12.55;;;8.60;1.00;;;;;;4976867;28;20191;-61
2020/12/17 06:46:38;;;;;;;19.10;13.30;;;8.70;1.00;;;;;;4976863;28;20176;-61
2020/12/17 06:49:10;;;;;;;19.85;13.48;;;8.70;1.00;;;;;;4976661;28;20415;-62
2020/12/17 06:51:40;;;;;;;20.33;12.90;;;8.80;1.00;;;;;;4977082;28;20199;-62
2020/12/17 06:54:28;;;;;;;22.58;14.40;;;8.80;1.00;;;;;;4976824;28;20626;-61
2020/12/17 06:57:11;;;;;;;22.15;13.80;;;8.70;1.00;;;;;;4976593;28;20215;-61
2020/12/17 06:59:38;;;;;;;19.20;12.75;;;8.80;1.00;;;;;;4976390;28;20204;-64
2020/12/17 07:02:05;;;;;;;17.38;12.52;;;8.80;1.00;;;;;;4976469;28;20753;-64
2020/12/17 07:04:45;;;;;;;19.48;13.68;;;8.80;1.00;;;;;;4976486;28;20496;-67
2020/12/17 07:07:19;;;;;;;19.00;13.40;;;8.90;1.00;;;;;;4976482;28;20176;-62
2020/12/17 07:09:50;;;;;;;19.83;13.10;;;8.80;1.00;;;;;;4976487;28;20189;-63
2020/12/17 07:12:34;;;;;;;17.00;13.43;;;8.80;1.00;;;;;;4976528;28;20180;-63
2020/12/17 07:15:04;;;;;;;25.05;12.75;;;8.80;1.00;;;;;;4976073;28;20180;-64
2020/12/17 07:17:30;;;;;;;16.50;10.93;;;8.70;1.00;;;;;;4976375;28;20212;-63
2020/12/17 07:19:56;;;;;;;18.67;12.77;;;8.80;1.00;;;;;;4976210;28;20179;-63
2020/12/17 07:22:22;;;;;;;21.27;13.55;;;8.70;1.00;;;;;;4975991;28;20478;-63
2020/12/17 07:24:52;;;;;;;21.60;13.80;;;8.80;1.00;;;;;;4975810;28;20176;-63
2020/12/17 07:27:29;;;;;;;17.90;13.07;;;8.90;1.00;;;;;;4975891;28;20255;-63
2020/12/17 07:30:05;;;;;;;19.17;12.25;;;8.90;1.00;;;;;;4976185;28;20175;-62
2020/12/17 07:32:36;;;;;;;18.00;11.98;;;8.80;1.00;;;;;;4986020;28;20237;-62
2020/12/17 07:35:08;;;;;;;19.80;12.68;;;8.80;1.00;;;;;;4985868;28;20184;-62
2020/12/17 07:37:36;;;;;;;19.92;12.30;;;8.80;1.00;;;;;;4976307;28;20184;-62
2020/12/17 07:40:24;;;;;;;19.50;11.85;;;8.80;1.00;;;;;;4975974;28;20622;-61
2020/12/17 07:43:02;;;;;;;17.63;11.75;;;8.80;1.00;;;;;;4975082;28;20224;-66
2020/12/17 07:45:45;;;;;;;18.60;12.18;;;8.80;1.00;;;;;;4981865;28;20240;-65
2020/12/17 07:48:35;;;;;;;17.75;12.00;;;8.80;1.00;;;;;;4987993;28;20180;-64
2020/12/17 07:51:07;;;;;;;17.35;11.20;;;8.80;1.00;;;;;;4974905;28;20687;-61
2020/12/17 07:53:34;;;;;;;19.35;12.30;;;8.80;1.00;;;;;;4977667;28;20247;-61
2020/12/17 07:56:00;;;;;;;17.13;12.02;;;8.80;1.00;;;;;;4975498;28;20239;-61
2020/12/17 07:58:25;;;;;;;18.35;12.27;;;8.80;1.00;;;;;;4975103;28;20298;-60
2020/12/17 08:00:55;;;;;;;17.47;11.33;;;8.80;1.00;;;;;;4973718;28;20271;-60
2020/12/17 08:03:22;;;;;;;16.30;11.45;;;8.80;1.00;;;;;;4974143;28;20306;-61
2020/12/17 08:05:48;;;;;;;15.73;10.88;;;8.80;1.00;;;;;;4975467;28;20180;-62
2020/12/17 08:08:19;;;;;;;16.27;11.35;;;8.80;1.00;;;;;;4975047;28;20176;-65
2020/12/17 08:10:46;;;;;;;15.40;10.50;;;8.90;1.00;;;;;;4975173;28;20618;-66
2020/12/17 08:13:12;;;;;;;13.43;10.05;;;8.90;1.00;;;;;;4975078;28;20553;-59
2020/12/17 08:15:38;;;;;;;18.58;11.90;;;8.90;1.00;;;;;;4975998;28;20183;-65
2020/12/17 08:18:04;;;;;;;25.63;15.13;;;8.90;1.00;;;;;;4990903;28;20341;-66
2020/12/17 08:20:31;;;;;;;17.33;12.68;;;9.10;1.00;;;;;;4974426;28;20451;-63
2020/12/17 08:22:56;;;;;;;21.08;13.55;;;9.10;1.00;;;;;;4975428;28;20208;-63
2020/12/17 08:25:23;;;;;;;17.03;12.90;;;9.00;1.00;;;;;;4977679;28;20637;-65
2020/12/17 08:27:52;;;;;;;21.33;11.88;;;9.00;1.00;;;;;;4976680;28;20230;-62
2020/12/17 08:30:20;;;;;;;18.90;12.10;;;9.00;1.00;;;;;;4974933;28;20609;-60
2020/12/17 08:32:54;;;;;;;18.05;12.00;;;9.00;1.00;;;;;;4976371;28;20202;-62
2020/12/17 08:35:22;;;;;;;19.15;11.40;;;9.00;1.00;;;;;;4974558;28;20569;-62
2020/12/17 08:37:51;;;;;;;17.67;11.13;;;9.00;1.00;;;;;;4974680;28;20535;-60
2020/12/17 08:40:25;;;;;;;19.90;12.45;;;9.00;1.00;;;;;;4974528;28;20191;-62
2020/12/17 08:42:55;;;;;;;26.75;15.77;;;9.00;1.00;;;;;;4977311;28;20207;-62
2020/12/17 08:45:23;;;;;;;23.35;14.27;;;9.00;1.00;;;;;;4974368;28;20191;-62
2020/12/17 08:47:50;;;;;;;14.73;11.40;;;9.00;1.00;;;;;;4976566;28;20183;-64
2020/12/17 08:50:16;;;;;;;17.83;12.18;;;9.00;1.00;;;;;;4975469;28;20211;-65
2020/12/17 08:52:43;;;;;;;21.27;12.48;;;9.10;1.00;;;;;;4973832;28;20194;-61
2020/12/17 08:55:10;;;;;;;19.33;11.15;;;9.20;1.00;;;;;;4974459;28;20692;-64
2020/12/17 08:57:36;;;;;;;17.20;11.90;;;9.20;1.00;;;;;;4974658;28;20187;-63
2020/12/17 09:00:05;;;;;;;18.00;11.77;;;9.20;1.00;;;;;;4973488;28;20295;-62
2020/12/17 09:02:30;;;;;;;18.55;11.23;;;9.20;1.00;;;;;;4954285;29;20212;-62
2020/12/17 09:05:00;;;;;;;18.37;12.47;;;9.20;1.00;;;;;;4966621;28;20192;-62
2020/12/17 09:07:31;;;;;;;17.15;11.70;;;9.20;1.00;;;;;;4979040;28;20349;-65
2020/12/17 09:10:10;;;;;;;28.58;16.10;;;9.30;1.00;;;;;;4976736;28;20183;-62
2020/12/17 09:12:36;;;;;;;17.42;10.93;;;9.30;1.00;;;;;;4995455;28;20190;-64
2020/12/17 09:15:10;;;;;;;13.40;9.40;;;9.40;1.00;;;;;;4994195;28;20636;-63
2020/12/17 09:17:37;;;;;;;21.13;12.80;;;9.50;1.00;;;;;;4978343;28;20175;-63
2020/12/17 09:20:15;;;;;;;13.25;9.73;;;9.50;1.00;;;;;;4978518;28;20689;-63
2020/12/17 09:22:41;;;;;;;18.55;13.00;;;9.60;1.00;;;;;;4977284;28;20199;-66
2020/12/17 09:25:08;;;;;;;14.47;10.73;;;9.70;1.00;;;;;;4993925;28;20266;-67
2020/12/17 09:27:36;;;;;;;16.77;11.63;;;9.70;1.00;;;;;;4982531;28;20537;-64
2020/12/17 09:30:04;;;;;;;17.02;11.00;;;9.60;1.00;;;;;;4977566;28;20222;-67
2020/12/17 09:32:30;;;;;;;15.73;10.98;;;9.50;1.00;;;;;;4982490;28;20625;-65
2020/12/17 09:35:11;;;;;;;14.20;11.00;;;9.60;1.00;;;;;;4977942;28;20234;-65
2020/12/17 09:37:39;;;;;;;20.70;13.05;;;9.50;1.00;;;;;;4977911;28;20222;-64
2020/12/17 09:40:07;;;;;;;17.20;10.50;;;9.50;1.00;;;;;;4977921;28;20267;-64
2020/12/17 09:42:32;;;;;;;16.00;10.52;;;9.40;1.00;;;;;;4996471;28;20207;-64
2020/12/17 09:44:58;;;;;;;13.77;9.20;;;9.40;1.00;;;;;;4996145;28;20242;-63
2020/12/17 09:47:33;;;;;;;16.13;10.90;;;9.50;1.00;;;;;;4977843;28;20548;-65
2020/12/17 09:50:14;;;;;;;14.13;10.38;;;9.60;1.00;;;;;;4977334;28;20230;-63
2020/12/17 09:52:40;;;;;;;14.20;10.35;;;9.60;1.00;;;;;;4977700;28;20250;-63
2020/12/17 09:55:05;;;;;;;13.83;11.03;;;9.60;1.00;;;;;;4977328;28;20601;-64
2020/12/17 09:57:39;;;;;;;14.50;11.07;;;9.70;1.00;;;;;;4977640;28;20188;-63
2020/12/17 10:00:07;;;;;;;18.70;11.65;;;9.80;1.00;;;;;;4977494;28;20195;-64
2020/12/17 10:02:32;;;;;;;15.50;11.50;;;9.60;1.00;;;;;;4977193;28;20649;-64
2020/12/17 10:04:58;;;;;;;16.97;11.53;;;9.70;1.00;;;;;;4976489;28;20197;-61
2020/12/17 10:07:24;;;;;;;14.83;10.60;;;9.70;1.00;;;;;;4979309;28;20183;-67
2020/12/17 10:09:49;;;;;;;18.03;13.03;;;9.70;1.00;;;;;;4978477;28;20191;-66
2020/12/17 10:12:15;;;;;;;16.60;10.97;;;9.70;1.40;;;;;;4976719;28;20183;-67
2020/12/17 10:14:41;;;;;;;17.67;11.80;;;9.80;14.10;;;;;;4979963;28;20195;-67
2020/12/17 10:17:06;;;;;;;17.60;10.80;;;9.80;15.70;;;;;;4986537;28;20191;-64
2020/12/17 10:19:32;;;;;;;21.43;12.10;;;9.70;15.90;;;;;;4977087;28;20202;-62
2020/12/17 10:21:58;;;;;;;19.77;11.37;;;9.70;35.70;;;;;;4976756;28;20247;-60
2020/12/17 10:24:24;;;;;;;15.43;11.50;;;9.90;70.20;;;;;;4975604;28;20617;-59
2020/12/17 10:26:50;;;;;;;16.07;12.03;;;9.80;84.40;;;;;;4977165;28;20208;-64
2020/12/17 10:29:16;;;;;;;16.83;11.97;;;9.90;93.90;;;;;;4975540;28;20432;-62
2020/12/17 10:31:41;;;;;;;16.67;11.97;;;10.00;91.60;;;;;;4976723;28;20211;-65
2020/12/17 10:34:07;;;;;;;15.83;12.30;;;10.00;85.00;;;;;;4988822;28;20313;-64
2020/12/17 10:36:40;;;;;;;16.20;12.97;;;10.10;56.10;;;;;;4976234;28;20184;-64
2020/12/17 10:39:07;;;;;;;16.85;11.98;;;10.00;43.80;;;;;;4976632;28;20255;-64
2020/12/17 10:41:33;;;;;;;16.63;11.27;;;10.00;43.70;;;;;;4976662;28;20266;-64
2020/12/17 10:43:59;;;;;;;16.25;12.20;;;10.00;58.10;;;;;;4975352;28;20485;-63
2020/12/17 10:46:25;;;;;;;18.50;12.00;;;10.00;55.90;;;;;;4976338;28;20633;-63
2020/12/17 10:48:50;;;;;;;16.93;11.83;;;10.10;54.30;;;;;;4976361;28;20506;-62
2020/12/17 10:51:17;;;;;;;19.10;12.70;;;10.00;55.20;;;;;;4976169;28;20188;-65
2020/12/17 10:53:43;;;;;;;19.10;12.13;;;10.00;61.70;;;;;;4975120;28;20195;-64
2020/12/17 10:56:10;;;;;;;16.88;12.98;;;10.00;74.70;;;;;;4976199;28;20184;-63
2020/12/17 10:58:36;;;;;;;20.67;12.80;;;10.00;90.10;;;;;;4975455;28;22154;-63
2020/12/17 11:01:02;;;;;;;18.88;13.00;;;10.20;95.70;;;;;;4976415;28;20655;-63
2020/12/17 11:03:28;;;;;;;18.00;14.03;;;10.30;92.20;;;;;;4976118;28;20207;-62
2020/12/17 11:05:56;;;;;;;23.23;13.40;;;10.30;81.50;;;;;;4975558;28;20806;-62
2020/12/17 11:08:22;;;;;;;16.38;11.75;;;10.20;63.10;;;;;;4976486;28;20427;-62
2020/12/17 11:10:48;;;;;;;15.75;11.05;;;10.10;68.40;;;;;;4976397;28;20639;-63
2020/12/17 11:13:14;;;;;;;15.40;11.03;;;10.10;75.30;;;;;;4976029;28;20196;-63
2020/12/17 11:15:41;;;;;;;17.40;11.35;;;10.10;91.30;;;;;;4986410;28;20750;-61
2020/12/17 11:18:06;;;;;;;18.63;13.02;;;10.20;99.10;;;;;;4979881;28;20620;-61
2020/12/17 11:20:32;;;;;;;19.07;12.33;;;10.20;95.10;;;;;;4975937;28;20192;-61
2020/12/17 11:22:57;;;;;;;12.43;10.63;;;10.30;94.80;;;;;;4975921;28;20550;-67
2020/12/17 11:25:23;;;;;;;15.77;11.53;;;10.20;92.30;;;;;;4975993;28;20180;-63
2020/12/17 11:27:49;;;;;;;16.70;12.73;;;10.30;94.20;;;;;;4975785;28;20628;-62
2020/12/17 11:30:17;;;;;;;17.98;12.32;;;10.20;94.30;;;;;;4994247;28;20183;-61
2020/12/17 11:32:42;;;;;;;16.05;12.05;;;10.20;88.50;;;;;;4994399;28;20695;-60
2020/12/17 11:35:08;;;;;;;22.63;14.27;;;10.40;94.90;;;;;;4983819;28;20180;-61
2020/12/17 11:37:34;;;;;;;17.93;11.97;;;10.50;72.70;;;;;;4974565;28;20291;-61
2020/12/17 11:40:00;;;;;;;19.30;12.30;;;10.60;67.90;;;;;;4975421;28;20184;-66
2020/12/17 11:42:27;;;;;;;16.30;12.75;;;10.50;40.90;;;;;;4974478;28;20652;-66
2020/12/17 11:44:53;;;;;;;18.42;13.65;;;10.50;33.40;;;;;;4974383;28;20280;-67
2020/12/17 11:47:19;;;;;;;20.53;13.80;;;10.40;27.60;;;;;;4975800;28;20263;-66
2020/12/17 11:49:44;;;;;;;18.30;12.10;;;10.40;37.70;;;;;;4978479;28;20539;-67
2020/12/17 11:52:10;;;;;;;14.77;12.07;;;10.40;42.30;;;;;;4979674;28;20222;-64
2020/12/17 11:54:36;;;;;;;16.33;12.00;;;10.40;53.50;;;;;;4977746;28;20187;-63
2020/12/17 11:57:01;;;;;;;15.00;11.90;;;10.30;60.00;;;;;;4974921;28;20525;-62
2020/12/17 11:59:29;;;;;;;16.00;11.20;;;10.30;56.60;;;;;;4975487;28;20203;-61
2020/12/17 12:01:57;;;;;;;13.98;10.77;;;10.40;74.90;;;;;;4975580;28;20274;-63
2020/12/17 12:04:23;;;;;;;14.10;10.65;;;10.40;89.00;;;;;;4975854;28;20180;-62
2020/12/17 12:06:50;;;;;;;14.87;11.43;;;10.60;98.20;;;;;;4975646;28;20238;-61
2020/12/17 12:09:18;;;;;;;14.73;12.15;;;10.70;65.50;;;;;;4975591;28;20187;-61
2020/12/17 12:11:46;;;;;;;12.77;10.20;;;10.80;35.00;;;;;;4975688;28;20311;-63
2020/12/17 12:14:12;;;;;;;16.02;12.02;;;10.80;1.00;;;;;;4974338;28;20199;-61
2020/12/17 12:16:38;;;;;;;13.30;10.90;;;10.80;1.00;;;;;;4993833;28;20186;-63
2020/12/17 12:19:03;;;;;;;13.10;10.37;;;10.80;1.00;;;;;;4995003;28;20179;-63
2020/12/17 12:21:29;;;;;;;12.90;9.93;;;10.90;1.00;;;;;;4993824;28;20635;-65
2020/12/17 12:23:55;;;;;;;17.03;10.63;;;10.90;1.00;;;;;;4990860;28;20278;-65
2020/12/17 12:26:20;;;;;;;14.30;11.80;;;10.80;1.00;;;;;;4975243;28;20208;-65
2020/12/17 12:28:46;;;;;;;12.30;9.43;;;10.70;1.00;;;;;;4975271;28;20176;-66
2020/12/17 12:31:14;;;;;;;12.83;11.50;;;10.70;1.00;;;;;;4975228;28;20519;-64
2020/12/17 12:33:40;;;;;;;14.82;10.80;;;10.60;1.00;;;;;;4975116;28;20176;-64
2020/12/17 12:36:06;;;;;;;11.07;9.10;;;10.50;1.00;;;;;;4974922;28;20212;-63
2020/12/17 12:38:31;;;;;;;13.60;10.00;;;10.40;1.00;;;;;;4975179;28;20254;-63
2020/12/17 12:40:57;;;;;;;13.10;10.30;;;10.30;1.60;;;;;;4975021;28;20188;-64
2020/12/17 12:43:23;;;;;;;11.83;9.60;;;10.30;24.80;;;;;;4974317;28;20281;-62
2020/12/17 12:45:51;;;;;;;11.20;7.87;;;10.30;16.90;;;;;;4989216;28;20179;-64